Aérodrome :
LOGIN :

S'inscrire | Disclaimer

   EN    FR    IT 

 










Légende :    VFR   VFR Marginal   IFR   IFR Intensif   IFR Très Intensif
Visi : 
Plafond : 
>= 8 km
>= 3000ft
5 à 8 km
1000 à 3000 ft
1500m à 5 km
500 à 1000 ft
800 à 1500m
200 à 500 ft
< 800m
< 200 ft
Symboles :   Orages  Brouillard  Fortes neiges  Fortes précipitations  Vent > 20 kt
SIGMETs :   Divers  Orages  Givrage  Turbulence  Onde Orograph.  Cendres Volcan.






- Altitude de l'aérodrome : 1020 ft
- Code IATA : ILZ


LZZI - Žilina

DERNIER METAR :
  • 150900Z VRB01KT CAVOK 17/13 Q1015

METARs EXPIRÉS :
  • 150838Z VRB02KT CAVOK 15/14 Q1015
  • 150830Z VRB01KT CAVOK 13/13 Q1015
  • 150800Z VRB01KT 9999 1300SW PRFG FEW002 12/11 Q1015
  • 150736Z VRB01KT 9999 0600SW PRFG FEW002 11/10 Q1015
  • 150700Z VRB02KT 0500 R06/1100N FG SCT002 09/09 Q1015
  • 150630Z VRB01KT 0250 R06/0550N FG SCT002 09/08 Q1016

TAF TAF LZZI
Valide du 15 à 09h jusqu'au 15 à 18h UTC


150800Z 1509/1518 VRB02KT CAVOK
BECMG 1510/1512 19008KT



MET'MAP, la Météo Aéronautique d'un coup d'oeil ! - Copyright ORBIFLY Décembre 2007 - Disclaimer

ORBIFLY MET'MAP TEAM :

Programmation & Développement : Alexandra Zaïnal
Conception & Développement : Baudouin d'Aumeries
Co-Programmation & Développement : Marc-Olivier Méhu
Soutien technique & logistique : Manuel Goepfert

Contact : metmap@orbifly.com




SOURCES & CREDITS :

   NOAA